logo
Search for airport 
image banner adimage banner adimage banner ad
image banner ad

OKDI - Udairi (Camp Buehring) Army Air Field

Located in Camp Buehring, Kuwait

ICAO - OKDI, IATA -

Data provided by Airmate  

General information

Coordinates: N29°41'51" E47°26'10"
Elevation is 430 feet MSL.
Magnetic variation is 4° East
View others Airports in Al Jahra Governorate

Operational data

Special qualification required
Current time UTC:
Current local time:
Weather at : OKAS - Ali Al Salem Air Base ( 40 km )
METAR: OKAS 131855Z AUTO 29006KT 9999 CLR 24/05 A2980 RMK AO2 SLP087 T02380052 $
TAF: TAF OKAS 131600Z 1316/1422 31012KT 9999 SKC QNH2981INS BECMG 1320/1321 27009KT 9999 SKC QNH2976INS BECMG 1405/1406 31012G20KT 9999 SKC QNH2980INS BECMG 1416/1417 34009KT 9999 SKC QNH2981INS TX33/1410Z TN18/1402Z
View NOTAMs / SUP AIP / TFR affecting this airport [VIEW]
Communications frequencies: [VIEW]

Runways:

RWY identifierQFULength (ft)Width (ft)SurfaceLDA (ft)
18521580ASP
36521580ASP

Airport contact information

Address: Camp Buehring Kuwait

Satellite view of OKDI